Time;durP1;ratioP1;P1;durP2;ratioP2;P2;SDS_P1;SDS_P2;PMS_P1;PMS_P2;Temp;Humidity;BMP_temperature;BMP_pressure;BME280_temperature;BME280_humidity;BME280_pressure;Samples;Min_cycle;Max_cycle;Signal;HPM_P1;HPM_P2
2022/04/14 00:00:58;;;;;;;4.05;1.27;;;;;;;;;;2090494;28;20547;-62
2022/04/14 00:02:17;;;;;;;4.88;1.48;;;;;;;;;;2088842;28;20471;-62
2022/04/14 00:03:36;;;;;;;2.35;0.93;;;;;;;;;;2089802;28;20024;-62
2022/04/14 00:04:55;;;;;;;3.05;1.02;;;;;;;;;;2088217;28;20029;-62
2022/04/14 00:06:14;;;;;;;3.38;1.20;;;;;;;;;;2089804;28;20402;-65
2022/04/14 00:07:33;;;;;;;2.83;1.20;;;;;;;;;;2089244;28;20029;-63
2022/04/14 00:08:52;;;;;;;2.92;1.63;;;;;;;;;;2088791;28;20021;-63
2022/04/14 00:10:11;;;;;;;2.83;0.88;;;;;;;;;;2090132;28;20025;-63
2022/04/14 00:11:30;;;;;;;3.15;1.20;;;;;;;;;;2090400;28;20029;-63
2022/04/14 00:12:49;;;;;;;3.10;1.08;;;;;;;;;;2083296;28;20578;-64
2022/04/14 00:14:08;;;;;;;4.45;0.93;;;;;;;;;;2081708;28;20041;-63
2022/04/14 00:15:28;;;;;;;3.30;1.13;;;;;;;;;;2080540;28;20100;-63
2022/04/14 00:16:47;;;;;;;3.45;1.30;;;;;;;;;;2079802;28;20014;-63
2022/04/14 00:18:06;;;;;;;6.20;1.40;;;;;;;;;;2081939;28;20037;-63
2022/04/14 00:19:25;;;;;;;2.90;1.10;;;;;;;;;;2081978;28;20033;-61
2022/04/14 00:20:44;;;;;;;3.63;1.23;;;;;;;;;;2079963;28;20034;-63
2022/04/14 00:22:03;;;;;;;3.45;0.90;;;;;;;;;;2071896;28;20034;-62
2022/04/14 00:23:22;;;;;;;3.08;1.13;;;;;;;;;;2069547;28;20206;-62
2022/04/14 00:24:41;;;;;;;2.75;1.15;;;;;;;;;;2077088;28;20029;-63
2022/04/14 00:26:00;;;;;;;3.65;1.50;;;;;;;;;;2081505;28;20426;-63
2022/04/14 00:27:19;;;;;;;4.18;1.02;;;;;;;;;;2081180;28;20030;-63
2022/04/14 00:28:38;;;;;;;4.93;1.45;;;;;;;;;;2072702;28;20091;-62
2022/04/14 00:29:57;;;;;;;5.68;1.30;;;;;;;;;;2078425;28;20061;-63
2022/04/14 00:31:16;;;;;;;4.10;1.00;;;;;;;;;;2081621;28;20030;-61
2022/04/14 00:32:35;;;;;;;3.40;0.98;;;;;;;;;;2081127;28;20034;-62
2022/04/14 00:33:54;;;;;;;1.85;1.13;;;;;;;;;;2081804;28;20021;-62
2022/04/14 00:35:13;;;;;;;2.45;0.88;;;;;;;;;;2081331;28;20121;-63
2022/04/14 00:36:33;;;;;;;2.65;1.10;;;;;;;;;;2080935;28;20029;-62
2022/04/14 00:37:52;;;;;;;4.72;1.13;;;;;;;;;;2080936;28;20057;-63
2022/04/14 00:39:11;;;;;;;3.03;1.17;;;;;;;;;;2081537;28;20021;-63
2022/04/14 00:40:30;;;;;;;2.35;1.17;;;;;;;;;;2081801;28;20127;-63
2022/04/14 00:41:49;;;;;;;3.42;1.25;;;;;;;;;;2082289;28;20434;-63
2022/04/14 00:43:08;;;;;;;2.65;1.25;;;;;;;;;;2081395;28;20038;-62
2022/04/14 00:44:27;;;;;;;5.70;1.40;;;;;;;;;;2073582;28;20026;-62
2022/04/14 00:45:46;;;;;;;3.55;1.10;;;;;;;;;;2076545;28;20029;-63
2022/04/14 00:47:06;;;;;;;2.90;1.20;;;;;;;;;;2080375;28;20037;-62
2022/04/14 00:48:25;;;;;;;4.00;1.08;;;;;;;;;;2081976;28;20041;-62
2022/04/14 00:49:44;;;;;;;2.75;1.10;;;;;;;;;;2080961;28;20030;-62
2022/04/14 00:51:03;;;;;;;4.88;1.17;;;;;;;;;;2081401;28;20427;-62
2022/04/14 00:52:22;;;;;;;2.03;1.27;;;;;;;;;;2071532;28;20384;-62
2022/04/14 00:53:41;;;;;;;5.00;1.20;;;;;;;;;;2077414;28;20395;-62
2022/04/14 00:55:00;;;;;;;2.67;1.42;;;;;;;;;;2071863;28;20480;-64
2022/04/14 00:56:19;;;;;;;2.85;1.08;;;;;;;;;;2070427;28;20022;-63
2022/04/14 00:57:38;;;;;;;3.33;1.10;;;;;;;;;;2077552;28;20041;-63
2022/04/14 00:58:57;;;;;;;4.57;1.35;;;;;;;;;;2081347;28;20025;-62
2022/04/14 01:00:16;;;;;;;2.63;1.00;;;;;;;;;;2080089;28;20037;-62
2022/04/14 01:01:35;;;;;;;4.07;1.40;;;;;;;;;;2081770;28;20030;-63
2022/04/14 01:02:55;;;;;;;2.42;1.15;;;;;;;;;;2081533;28;20022;-63
2022/04/14 01:04:14;;;;;;;5.60;1.30;;;;;;;;;;2072464;28;20026;-63
2022/04/14 01:05:34;;;;;;;5.97;1.48;;;;;;;;;;2077793;28;20029;-63
2022/04/14 01:06:53;;;;;;;3.35;1.67;;;;;;;;;;2081539;28;20112;-63
2022/04/14 01:08:15;;;;;;;4.78;1.77;;;;;;;;;;2080907;28;20112;-63
2022/04/14 01:09:34;;;;;;;2.45;1.33;;;;;;;;;;2081365;28;20038;-63
2022/04/14 01:10:53;;;;;;;3.30;1.67;;;;;;;;;;2081126;28;20029;-63
2022/04/14 01:12:13;;;;;;;2.65;1.52;;;;;;;;;;2082305;28;20053;-63
2022/04/14 01:13:32;;;;;;;4.40;1.60;;;;;;;;;;2089685;28;20033;-63
2022/04/14 01:14:51;;;;;;;3.63;1.65;;;;;;;;;;2089699;28;20404;-63
2022/04/14 01:16:10;;;;;;;3.80;1.40;;;;;;;;;;2097625;28;20033;-63
2022/04/14 01:17:29;;;;;;;3.90;1.13;;;;;;;;;;2090965;28;20029;-63
2022/04/14 01:18:48;;;;;;;4.20;1.48;;;;;;;;;;2090071;28;20025;-63
2022/04/14 01:20:08;;;;;;;3.58;1.30;;;;;;;;;;2097637;28;20032;-63
2022/04/14 01:21:30;;;;;;;5.00;1.77;;;;;;;;;;2091903;28;20033;-63
2022/04/14 01:23:01;;;;;;;3.15;1.52;;;;;;;;;;2088241;28;20033;-62
2022/04/14 01:24:19;;;;;;;8.05;1.33;;;;;;;;;;2089690;28;20462;-63
2022/04/14 01:25:39;;;;;;;3.22;1.48;;;;;;;;;;2088349;28;20025;-63
2022/04/14 01:26:58;;;;;;;5.97;1.40;;;;;;;;;;2089260;28;20029;-63
2022/04/14 01:28:18;;;;;;;2.90;1.88;;;;;;;;;;2089326;28;20064;-63
2022/04/14 01:29:37;;;;;;;4.68;1.67;;;;;;;;;;2090012;28;20032;-64
2022/04/14 01:30:56;;;;;;;5.85;1.52;;;;;;;;;;2088993;28;20025;-63
2022/04/14 01:32:15;;;;;;;5.40;1.73;;;;;;;;;;2088554;28;20017;-63
2022/04/14 01:33:34;;;;;;;5.03;2.15;;;;;;;;;;2089384;28;20025;-63
2022/04/14 01:34:53;;;;;;;4.00;1.67;;;;;;;;;;2095625;28;20028;-63
2022/04/14 01:36:12;;;;;;;4.22;1.90;;;;;;;;;;2092503;28;20037;-63
2022/04/14 01:37:31;;;;;;;5.38;2.20;;;;;;;;;;2089022;28;20025;-63
2022/04/14 01:38:50;;;;;;;5.63;2.35;;;;;;;;;;2088560;28;20033;-63
2022/04/14 01:40:09;;;;;;;7.13;2.00;;;;;;;;;;2087798;28;20029;-63
2022/04/14 01:41:28;;;;;;;3.05;1.73;;;;;;;;;;2088791;28;20064;-63
2022/04/14 01:42:47;;;;;;;3.55;1.70;;;;;;;;;;2089478;28;20033;-63
2022/04/14 01:44:06;;;;;;;4.22;2.35;;;;;;;;;;2089827;28;20033;-63
2022/04/14 01:45:25;;;;;;;6.30;1.92;;;;;;;;;;2087280;28;20503;-64
2022/04/14 01:46:44;;;;;;;2.80;2.05;;;;;;;;;;2088664;28;20040;-63
2022/04/14 01:48:03;;;;;;;7.55;2.05;;;;;;;;;;2089889;28;20033;-63
2022/04/14 01:49:22;;;;;;;5.07;1.90;;;;;;;;;;2089577;28;20036;-63
2022/04/14 01:50:41;;;;;;;2.50;1.83;;;;;;;;;;2088964;28;20036;-63
2022/04/14 01:52:00;;;;;;;4.70;2.33;;;;;;;;;;2088613;28;20021;-63
2022/04/14 01:53:19;;;;;;;3.47;2.00;;;;;;;;;;2089826;28;20028;-63
2022/04/14 01:54:38;;;;;;;6.25;2.97;;;;;;;;;;2089129;28;20028;-63
2022/04/14 01:55:57;;;;;;;4.28;2.03;;;;;;;;;;2091083;28;20021;-63
2022/04/14 01:57:16;;;;;;;6.18;2.20;;;;;;;;;;2089833;28;20077;-64
2022/04/14 01:58:35;;;;;;;4.25;2.10;;;;;;;;;;2089223;28;20388;-61
2022/04/14 01:59:54;;;;;;;2.45;1.70;;;;;;;;;;2088592;28;20029;-62
2022/04/14 02:01:13;;;;;;;6.63;2.20;;;;;;;;;;2088069;28;20483;-63
2022/04/14 02:02:32;;;;;;;3.22;2.33;;;;;;;;;;2089662;28;20503;-63
2022/04/14 02:03:51;;;;;;;4.70;2.42;;;;;;;;;;2088650;28;20025;-63
2022/04/14 02:05:10;;;;;;;5.90;2.35;;;;;;;;;;2087468;28;20029;-63
2022/04/14 02:06:29;;;;;;;3.58;2.10;;;;;;;;;;2088899;28;20033;-63
2022/04/14 02:07:48;;;;;;;2.97;2.60;;;;;;;;;;2087490;28;20029;-63
2022/04/14 02:09:07;;;;;;;4.05;2.30;;;;;;;;;;2089120;28;20025;-63
2022/04/14 02:10:26;;;;;;;3.10;2.22;;;;;;;;;;2097194;28;20394;-63
2022/04/14 02:11:45;;;;;;;3.80;2.30;;;;;;;;;;2089026;28;20021;-63
2022/04/14 02:13:04;;;;;;;5.55;2.05;;;;;;;;;;2086059;28;20053;-63
2022/04/14 02:14:23;;;;;;;3.97;2.25;;;;;;;;;;2088526;28;20029;-63
2022/04/14 02:15:42;;;;;;;3.78;2.30;;;;;;;;;;2089111;28;20033;-63
2022/04/14 02:17:01;;;;;;;5.82;2.17;;;;;;;;;;2089499;28;20029;-63
2022/04/14 02:18:19;;;;;;;3.50;1.88;;;;;;;;;;2088313;28;20050;-63
2022/04/14 02:19:39;;;;;;;4.10;2.20;;;;;;;;;;2089510;28;20503;-62
2022/04/14 02:20:59;;;;;;;4.28;2.65;;;;;;;;;;2087800;28;20033;-63
2022/04/14 02:22:18;;;;;;;2.60;2.40;;;;;;;;;;2088627;28;20542;-63
2022/04/14 02:23:37;;;;;;;4.18;2.63;;;;;;;;;;2088843;28;20502;-63
2022/04/14 02:24:56;;;;;;;5.40;2.53;;;;;;;;;;2088754;28;20075;-63
2022/04/14 02:26:19;;;;;;;3.28;2.45;;;;;;;;;;2088953;28;20211;-63
2022/04/14 02:27:37;;;;;;;3.75;2.40;;;;;;;;;;2089342;28;20141;-63
2022/04/14 02:28:56;;;;;;;7.13;2.50;;;;;;;;;;2088675;28;20033;-63
2022/04/14 02:30:15;;;;;;;4.97;2.70;;;;;;;;;;2088007;28;20025;-63
2022/04/14 02:31:34;;;;;;;6.22;2.65;;;;;;;;;;2097125;28;20115;-63
2022/04/14 02:32:54;;;;;;;3.30;2.63;;;;;;;;;;2092683;28;20021;-64
2022/04/14 02:34:13;;;;;;;6.55;2.95;;;;;;;;;;2088049;28;20399;-63
2022/04/14 02:35:32;;;;;;;5.22;2.85;;;;;;;;;;2088733;28;20053;-63
2022/04/14 02:36:51;;;;;;;8.15;3.03;;;;;;;;;;2088285;28;20021;-64
2022/04/14 02:38:10;;;;;;;5.78;3.08;;;;;;;;;;2089005;28;20077;-63
2022/04/14 02:39:31;;;;;;;4.35;2.78;;;;;;;;;;2089636;28;20029;-63
2022/04/14 02:40:49;;;;;;;9.02;3.50;;;;;;;;;;2088022;28;20104;-63
2022/04/14 02:42:08;;;;;;;6.53;3.25;;;;;;;;;;2086525;28;20029;-63
2022/04/14 02:43:27;;;;;;;6.90;3.30;;;;;;;;;;2089728;28;20108;-64
2022/04/14 02:44:46;;;;;;;5.90;3.10;;;;;;;;;;2090630;28;20029;-63
2022/04/14 02:46:05;;;;;;;5.18;3.10;;;;;;;;;;2097394;28;20024;-64
2022/04/14 02:47:24;;;;;;;4.05;3.15;;;;;;;;;;2093806;28;20383;-64
2022/04/14 02:48:43;;;;;;;6.53;3.38;;;;;;;;;;2090338;28;20443;-66
2022/04/14 02:50:03;;;;;;;5.22;2.75;;;;;;;;;;2098055;28;20048;-63
2022/04/14 02:51:22;;;;;;;4.53;3.25;;;;;;;;;;2092780;28;20025;-64
2022/04/14 02:52:41;;;;;;;7.05;3.70;;;;;;;;;;2090124;28;20033;-64
2022/04/14 02:54:00;;;;;;;5.20;3.47;;;;;;;;;;2090882;28;20029;-63
2022/04/14 02:55:20;;;;;;;11.75;3.50;;;;;;;;;;2091259;28;20037;-63
2022/04/14 02:56:39;;;;;;;7.30;3.40;;;;;;;;;;2091052;28;20025;-63
2022/04/14 02:57:58;;;;;;;5.10;3.47;;;;;;;;;;2091076;28;20021;-63
2022/04/14 02:59:17;;;;;;;4.13;3.22;;;;;;;;;;2091001;28;20037;-63
2022/04/14 03:00:36;;;;;;;3.80;3.47;;;;;;;;;;2090082;28;20429;-63
2022/04/14 03:01:55;;;;;;;8.50;3.72;;;;;;;;;;2089876;28;20037;-63
2022/04/14 03:03:14;;;;;;;6.78;3.53;;;;;;;;;;2090876;28;20495;-63
2022/04/14 03:04:33;;;;;;;5.13;3.50;;;;;;;;;;2090498;28;20029;-63
2022/04/14 03:05:52;;;;;;;6.18;3.95;;;;;;;;;;2091032;28;20021;-63
2022/04/14 03:07:11;;;;;;;7.50;3.63;;;;;;;;;;2091297;28;20029;-63
2022/04/14 03:08:30;;;;;;;6.15;4.28;;;;;;;;;;2090919;28;20060;-63
2022/04/14 03:09:48;;;;;;;5.72;3.85;;;;;;;;;;2091068;28;20037;-63
2022/04/14 03:11:07;;;;;;;7.28;3.95;;;;;;;;;;2091010;28;20472;-63
2022/04/14 03:12:26;;;;;;;6.65;3.80;;;;;;;;;;2088997;28;20045;-63
2022/04/14 03:13:45;;;;;;;7.03;3.83;;;;;;;;;;2090023;28;20021;-63
2022/04/14 03:15:04;;;;;;;4.53;3.70;;;;;;;;;;2089711;28;20041;-63
2022/04/14 03:16:23;;;;;;;7.07;3.33;;;;;;;;;;2089103;28;20026;-62
2022/04/14 03:17:42;;;;;;;7.50;4.18;;;;;;;;;;2090426;28;20032;-62
2022/04/14 03:19:01;;;;;;;6.38;3.78;;;;;;;;;;2090411;28;20025;-63
2022/04/14 03:20:20;;;;;;;5.65;4.05;;;;;;;;;;2089754;28;20037;-63
2022/04/14 03:21:39;;;;;;;5.95;3.65;;;;;;;;;;2090092;28;20025;-63
2022/04/14 03:22:58;;;;;;;7.13;3.97;;;;;;;;;;2091351;28;20065;-63
2022/04/14 03:24:17;;;;;;;8.77;4.07;;;;;;;;;;2090702;28;20033;-63
2022/04/14 03:25:36;;;;;;;4.35;3.50;;;;;;;;;;2089996;28;20037;-62
2022/04/14 03:26:55;;;;;;;8.32;4.40;;;;;;;;;;2090836;28;20080;-63
2022/04/14 03:28:14;;;;;;;7.28;3.58;;;;;;;;;;2090502;28;20036;-63
2022/04/14 03:29:34;;;;;;;5.78;3.42;;;;;;;;;;2090039;28;20029;-63
2022/04/14 03:30:53;;;;;;;11.20;3.83;;;;;;;;;;2090347;28;20033;-62
2022/04/14 03:32:12;;;;;;;6.72;4.00;;;;;;;;;;2089640;28;20021;-63
2022/04/14 03:33:31;;;;;;;5.22;3.65;;;;;;;;;;2090172;28;20033;-63
2022/04/14 03:34:53;;;;;;;10.18;4.70;;;;;;;;;;2089144;28;20033;-63
2022/04/14 03:36:13;;;;;;;5.03;4.10;;;;;;;;;;2089845;28;20029;-63
2022/04/14 03:37:32;;;;;;;6.75;4.40;;;;;;;;;;2089844;28;20033;-62
2022/04/14 03:38:51;;;;;;;6.93;4.20;;;;;;;;;;2093482;28;20065;-63
2022/04/14 03:40:10;;;;;;;8.60;4.32;;;;;;;;;;2089564;28;20437;-63
2022/04/14 03:41:30;;;;;;;4.70;4.07;;;;;;;;;;2090049;28;20033;-63
2022/04/14 03:42:49;;;;;;;7.18;4.07;;;;;;;;;;2090040;28;20029;-63
2022/04/14 03:44:08;;;;;;;5.60;3.70;;;;;;;;;;2090187;28;20029;-63
2022/04/14 03:45:27;;;;;;;7.47;4.28;;;;;;;;;;2089297;28;20475;-63
2022/04/14 03:46:46;;;;;;;7.03;4.25;;;;;;;;;;2089092;28;20033;-63
2022/04/14 03:48:05;;;;;;;9.32;4.30;;;;;;;;;;2089839;28;20029;-63
2022/04/14 03:49:24;;;;;;;7.03;4.47;;;;;;;;;;2090556;28;20061;-62
2022/04/14 03:50:43;;;;;;;6.93;4.07;;;;;;;;;;2089342;28;20037;-64
2022/04/14 03:52:02;;;;;;;6.05;3.67;;;;;;;;;;2087787;28;20030;-64
2022/04/14 03:53:21;;;;;;;7.47;4.47;;;;;;;;;;2090564;28;20025;-64
2022/04/14 03:54:40;;;;;;;6.38;3.83;;;;;;;;;;2089378;28;20080;-63
2022/04/14 03:55:59;;;;;;;6.25;4.32;;;;;;;;;;2089959;28;20479;-63
2022/04/14 03:57:18;;;;;;;9.80;4.32;;;;;;;;;;2089770;28;20037;-63
2022/04/14 03:58:37;;;;;;;8.95;4.00;;;;;;;;;;2090421;28;20025;-63
2022/04/14 03:59:56;;;;;;;6.88;3.78;;;;;;;;;;2089864;28;20036;-63
2022/04/14 04:01:15;;;;;;;7.03;3.70;;;;;;;;;;2089464;28;20044;-64
2022/04/14 04:02:35;;;;;;;5.50;3.97;;;;;;;;;;2089797;28;20029;-63
2022/04/14 04:03:54;;;;;;;5.22;3.60;;;;;;;;;;2094357;28;20065;-63
2022/04/14 04:05:13;;;;;;;7.32;4.00;;;;;;;;;;2091828;28;20068;-63
2022/04/14 04:06:32;;;;;;;7.63;3.67;;;;;;;;;;2098190;28;20033;-63
2022/04/14 04:07:51;;;;;;;6.05;4.00;;;;;;;;;;2093060;28;20116;-63
2022/04/14 04:09:10;;;;;;;5.45;3.72;;;;;;;;;;2089926;28;20029;-63
2022/04/14 04:10:29;;;;;;;10.73;4.20;;;;;;;;;;2089884;28;20024;-64
2022/04/14 04:11:48;;;;;;;5.35;3.85;;;;;;;;;;2090274;28;20025;-63
2022/04/14 04:13:07;;;;;;;6.20;4.03;;;;;;;;;;2090553;28;20402;-63
2022/04/14 04:14:26;;;;;;;6.97;3.85;;;;;;;;;;2090460;28;20382;-63
2022/04/14 04:15:45;;;;;;;4.82;3.50;;;;;;;;;;2089378;28;20045;-63
2022/04/14 04:17:05;;;;;;;7.35;3.70;;;;;;;;;;2089900;28;20116;-63
2022/04/14 04:18:23;;;;;;;6.35;4.40;;;;;;;;;;2089138;28;20052;-63
2022/04/14 04:19:43;;;;;;;3.90;3.40;;;;;;;;;;2086974;28;20168;-63
2022/04/14 04:21:02;;;;;;;4.10;3.70;;;;;;;;;;2087997;28;20036;-62
2022/04/14 04:22:21;;;;;;;4.60;3.22;;;;;;;;;;2088707;28;20449;-63
2022/04/14 04:23:40;;;;;;;5.25;3.53;;;;;;;;;;2089511;28;20060;-63
2022/04/14 04:24:59;;;;;;;6.20;4.18;;;;;;;;;;2090218;28;20029;-62
2022/04/14 04:26:18;;;;;;;6.93;3.78;;;;;;;;;;2089036;28;20434;-63
2022/04/14 04:27:37;;;;;;;3.45;3.13;;;;;;;;;;2089430;28;20049;-64
2022/04/14 04:28:56;;;;;;;8.27;4.28;;;;;;;;;;2089951;28;20022;-64
2022/04/14 04:30:15;;;;;;;8.45;3.85;;;;;;;;;;2096963;28;20021;-63
2022/04/14 04:31:34;;;;;;;4.35;3.65;;;;;;;;;;2091704;28;20037;-64
2022/04/14 04:32:53;;;;;;;4.45;3.70;;;;;;;;;;2089604;28;20025;-64
2022/04/14 04:34:11;;;;;;;4.55;4.15;;;;;;;;;;2088854;28;20503;-64
2022/04/14 04:35:31;;;;;;;7.30;4.22;;;;;;;;;;2089465;28;20029;-64
2022/04/14 04:36:49;;;;;;;5.13;3.58;;;;;;;;;;2089008;28;20061;-64
2022/04/14 04:38:08;;;;;;;5.55;3.80;;;;;;;;;;2089477;28;20025;-64
2022/04/14 04:39:28;;;;;;;10.68;3.88;;;;;;;;;;2089963;28;20037;-62
2022/04/14 04:40:46;;;;;;;6.32;3.83;;;;;;;;;;2088139;28;20507;-61
2022/04/14 04:42:06;;;;;;;4.90;4.00;;;;;;;;;;2088240;28;20045;-61
2022/04/14 04:43:25;;;;;;;7.15;3.70;;;;;;;;;;2088995;28;20503;-62
2022/04/14 04:44:44;;;;;;;7.85;3.97;;;;;;;;;;2089592;28;20084;-62
2022/04/14 04:46:03;;;;;;;9.63;3.88;;;;;;;;;;2088822;28;20060;-62
2022/04/14 04:47:22;;;;;;;7.90;3.75;;;;;;;;;;2089398;28;20029;-62
2022/04/14 04:48:41;;;;;;;6.90;3.90;;;;;;;;;;2088791;28;20021;-62
2022/04/14 04:50:00;;;;;;;5.93;3.47;;;;;;;;;;2087935;28;20033;-62
2022/04/14 04:51:19;;;;;;;4.78;3.83;;;;;;;;;;2088632;28;20108;-62
2022/04/14 04:52:38;;;;;;;6.68;3.67;;;;;;;;;;2089980;28;20503;-62
2022/04/14 04:53:56;;;;;;;4.38;3.97;;;;;;;;;;2089095;28;20021;-62
2022/04/14 04:55:15;;;;;;;11.55;4.03;;;;;;;;;;2087133;28;20025;-62
2022/04/14 04:56:34;;;;;;;8.98;3.95;;;;;;;;;;2089167;28;20025;-64
2022/04/14 04:57:53;;;;;;;6.05;4.32;;;;;;;;;;2087703;28;20038;-61
2022/04/14 04:59:12;;;;;;;6.68;4.45;;;;;;;;;;2089757;28;20021;-62
2022/04/14 05:00:31;;;;;;;7.38;4.13;;;;;;;;;;2087903;28;20041;-62
2022/04/14 05:01:50;;;;;;;8.82;4.18;;;;;;;;;;2088651;28;20041;-61
2022/04/14 05:03:09;;;;;;;8.15;4.03;;;;;;;;;;2088821;28;20037;-62
2022/04/14 05:04:28;;;;;;;9.77;4.25;;;;;;;;;;2088979;28;20025;-62
2022/04/14 05:05:47;;;;;;;5.68;4.40;;;;;;;;;;2089138;28;20029;-62
2022/04/14 05:07:06;;;;;;;7.22;4.50;;;;;;;;;;2088322;28;20120;-62
2022/04/14 05:08:25;;;;;;;4.82;4.40;;;;;;;;;;2088959;28;20510;-61
2022/04/14 05:09:44;;;;;;;7.20;3.90;;;;;;;;;;2088654;28;20033;-62
2022/04/14 05:11:03;;;;;;;7.68;4.93;;;;;;;;;;2089564;28;20067;-62
2022/04/14 05:12:22;;;;;;;8.65;4.40;;;;;;;;;;2087440;28;20025;-62
2022/04/14 05:13:41;;;;;;;7.72;4.60;;;;;;;;;;2089413;28;20463;-60
2022/04/14 05:15:00;;;;;;;6.90;4.75;;;;;;;;;;2089846;28;20029;-62
2022/04/14 05:16:19;;;;;;;8.68;4.70;;;;;;;;;;2089199;28;20021;-62
2022/04/14 05:17:38;;;;;;;7.68;4.97;;;;;;;;;;2088352;28;20029;-62
2022/04/14 05:18:57;;;;;;;6.43;4.93;;;;;;;;;;2089149;28;20021;-62
2022/04/14 05:20:16;;;;;;;10.80;5.43;;;;;;;;;;2088864;28;20017;-62
2022/04/14 05:21:45;;;;;;;7.53;4.72;;;;;;;;;;2085773;28;20466;-62
2022/04/14 05:23:06;;;;;;;9.27;5.22;;;;;;;;;;2089231;28;20033;-61
2022/04/14 05:24:25;;;;;;;8.85;5.05;;;;;;;;;;2088123;28;20083;-61
2022/04/14 05:25:44;;;;;;;5.85;4.82;;;;;;;;;;2086886;28;20037;-60
2022/04/14 05:27:03;;;;;;;7.28;5.28;;;;;;;;;;2089313;28;20139;-60
2022/04/14 05:28:22;;;;;;;9.85;5.80;;;;;;;;;;2089683;28;20033;-61
2022/04/14 05:29:41;;;;;;;13.90;5.65;;;;;;;;;;2088401;28;20025;-61
2022/04/14 05:31:00;;;;;;;6.22;5.32;;;;;;;;;;2089235;28;20040;-60
2022/04/14 05:32:19;;;;;;;6.70;5.43;;;;;;;;;;2088761;28;20088;-61
2022/04/14 05:33:38;;;;;;;7.30;5.10;;;;;;;;;;2089168;28;20021;-60
2022/04/14 05:34:57;;;;;;;8.68;5.30;;;;;;;;;;2096080;28;20025;-60
2022/04/14 05:36:16;;;;;;;9.35;5.68;;;;;;;;;;2092243;28;20383;-61
2022/04/14 05:37:35;;;;;;;8.20;5.30;;;;;;;;;;2089468;28;20028;-61
2022/04/14 05:38:54;;;;;;;8.82;4.78;;;;;;;;;;2088483;28;20021;-61
2022/04/14 05:40:13;;;;;;;10.23;6.22;;;;;;;;;;2088938;28;20455;-61
2022/04/14 05:41:32;;;;;;;8.52;5.70;;;;;;;;;;2087550;28;20033;-60
2022/04/14 05:42:51;;;;;;;9.38;5.50;;;;;;;;;;2089189;28;20028;-61
2022/04/14 05:44:10;;;;;;;10.57;6.47;;;;;;;;;;2096807;28;20029;-61
2022/04/14 05:45:30;;;;;;;10.43;6.88;;;;;;;;;;2092333;28;20025;-61
2022/04/14 05:46:49;;;;;;;10.48;6.20;;;;;;;;;;2088966;28;20025;-61
2022/04/14 05:48:08;;;;;;;7.35;5.60;;;;;;;;;;2086557;28;20430;-61
2022/04/14 05:49:26;;;;;;;12.70;6.13;;;;;;;;;;2088536;28;20057;-61
2022/04/14 05:50:46;;;;;;;6.45;5.85;;;;;;;;;;2088867;28;20394;-61
2022/04/14 05:52:05;;;;;;;9.32;6.30;;;;;;;;;;2088358;28;20491;-61
2022/04/14 05:53:25;;;;;;;10.70;6.05;;;;;;;;;;2089745;28;20033;-61
2022/04/14 05:54:45;;;;;;;7.65;5.75;;;;;;;;;;2088252;28;20024;-62
2022/04/14 05:56:04;;;;;;;8.07;5.65;;;;;;;;;;2085090;28;20033;-61
2022/04/14 05:57:23;;;;;;;9.93;6.13;;;;;;;;;;2088214;28;20021;-63
2022/04/14 05:58:42;;;;;;;10.68;6.10;;;;;;;;;;2089813;28;20375;-61
2022/04/14 06:00:01;;;;;;;9.43;6.20;;;;;;;;;;2087879;28;20033;-61
2022/04/14 06:01:20;;;;;;;10.82;6.05;;;;;;;;;;2089527;28;20060;-61
2022/04/14 06:02:39;;;;;;;11.18;6.95;;;;;;;;;;2088592;28;20100;-61
2022/04/14 06:03:58;;;;;;;10.95;7.00;;;;;;;;;;2089258;28;20029;-61
2022/04/14 06:05:17;;;;;;;10.50;6.13;;;;;;;;;;2087842;28;20037;-60
2022/04/14 06:06:36;;;;;;;11.80;6.47;;;;;;;;;;2089588;28;20033;-60
2022/04/14 06:07:55;;;;;;;8.25;6.90;;;;;;;;;;2089310;28;20061;-60
2022/04/14 06:09:13;;;;;;;7.35;6.68;;;;;;;;;;2089710;28;20470;-60
2022/04/14 06:10:35;;;;;;;10.57;7.30;;;;;;;;;;2089362;28;20041;-61
2022/04/14 06:11:54;;;;;;;10.57;6.82;;;;;;;;;;2089137;28;20021;-61
2022/04/14 06:13:13;;;;;;;8.15;6.60;;;;;;;;;;2088344;28;20442;-61
2022/04/14 06:14:33;;;;;;;12.05;6.88;;;;;;;;;;2096404;28;20029;-61
2022/04/14 06:15:52;;;;;;;9.90;6.55;;;;;;;;;;2091853;28;20021;-61
2022/04/14 06:17:11;;;;;;;8.45;6.68;;;;;;;;;;2088718;28;20104;-61
2022/04/14 06:18:30;;;;;;;10.98;7.13;;;;;;;;;;2088383;28;20033;-61
2022/04/14 06:19:50;;;;;;;9.02;7.07;;;;;;;;;;2090561;28;20424;-62
2022/04/14 06:21:08;;;;;;;10.35;7.15;;;;;;;;;;2097452;28;20119;-62
2022/04/14 06:22:27;;;;;;;12.73;7.10;;;;;;;;;;2093818;28;20017;-62
2022/04/14 06:23:46;;;;;;;8.40;6.30;;;;;;;;;;2090319;28;20391;-61
2022/04/14 06:25:06;;;;;;;11.50;6.85;;;;;;;;;;2091399;28;20064;-61
2022/04/14 06:26:25;;;;;;;12.02;6.90;;;;;;;;;;2090654;28;20391;-61
2022/04/14 06:27:44;;;;;;;9.40;7.43;;;;;;;;;;2090595;28;20036;-61
2022/04/14 06:29:03;;;;;;;7.57;6.80;;;;;;;;;;2090794;28;20025;-61
2022/04/14 06:30:22;;;;;;;11.88;6.90;;;;;;;;;;2090632;28;20459;-61
2022/04/14 06:31:41;;;;;;;8.20;6.70;;;;;;;;;;2091064;28;20457;-62
2022/04/14 06:33:02;;;;;;;16.25;7.40;;;;;;;;;;2090510;28;20021;-60
2022/04/14 06:34:22;;;;;;;9.95;7.07;;;;;;;;;;2089994;28;20390;-61
2022/04/14 06:35:40;;;;;;;7.70;6.60;;;;;;;;;;2088683;28;20037;-61
2022/04/14 06:36:59;;;;;;;13.27;7.32;;;;;;;;;;2091281;28;20526;-61
2022/04/14 06:38:20;;;;;;;7.80;6.80;;;;;;;;;;2090389;28;20037;-61
2022/04/14 06:39:39;;;;;;;8.77;7.03;;;;;;;;;;2090395;28;20025;-61
2022/04/14 06:40:58;;;;;;;8.00;6.90;;;;;;;;;;2089850;28;20395;-61
2022/04/14 06:42:17;;;;;;;7.53;6.60;;;;;;;;;;2090297;28;20033;-61
2022/04/14 06:43:35;;;;;;;8.63;6.53;;;;;;;;;;2089812;28;20029;-61
2022/04/14 06:45:00;;;;;;;18.10;7.78;;;;;;;;;;2090745;28;20503;-60
2022/04/14 06:46:19;;;;;;;8.38;6.68;;;;;;;;;;2089578;28;20059;-61
2022/04/14 06:47:38;;;;;;;12.80;6.70;;;;;;;;;;2098439;28;20054;-61
2022/04/14 06:48:57;;;;;;;8.60;7.00;;;;;;;;;;2092741;28;20037;-61
2022/04/14 06:50:16;;;;;;;10.80;7.60;;;;;;;;;;2097371;28;20033;-60
2022/04/14 06:51:35;;;;;;;9.15;7.28;;;;;;;;;;2092969;28;20025;-61
2022/04/14 06:52:54;;;;;;;10.27;6.60;;;;;;;;;;2090861;28;20044;-61
2022/04/14 06:54:13;;;;;;;12.48;7.38;;;;;;;;;;2090399;28;20026;-61
2022/04/14 06:55:32;;;;;;;12.40;7.20;;;;;;;;;;2094780;28;20017;-61
2022/04/14 06:56:51;;;;;;;15.40;7.80;;;;;;;;;;2091839;28;20026;-61
2022/04/14 06:58:11;;;;;;;12.90;6.80;;;;;;;;;;2090472;28;20462;-61
2022/04/14 06:59:30;;;;;;;11.30;7.30;;;;;;;;;;2090794;28;20425;-61
2022/04/14 07:00:49;;;;;;;11.50;6.80;;;;;;;;;;2090202;28;20450;-59
2022/04/14 07:02:08;;;;;;;14.70;7.22;;;;;;;;;;2089323;28;20029;-60
2022/04/14 07:03:27;;;;;;;11.18;7.20;;;;;;;;;;2089589;28;20033;-61
2022/04/14 07:04:45;;;;;;;11.85;7.45;;;;;;;;;;2090373;28;20084;-61
2022/04/14 07:06:05;;;;;;;10.25;6.55;;;;;;;;;;2090745;28;20061;-61
2022/04/14 07:07:23;;;;;;;12.13;7.65;;;;;;;;;;2089454;28;20446;-61
2022/04/14 07:08:42;;;;;;;11.85;7.28;;;;;;;;;;2090191;28;20036;-61
2022/04/14 07:10:01;;;;;;;15.38;8.27;;;;;;;;;;2089754;28;20037;-61
2022/04/14 07:11:20;;;;;;;10.10;7.82;;;;;;;;;;2090665;28;20096;-61
2022/04/14 07:12:40;;;;;;;12.75;7.53;;;;;;;;;;2090208;28;20041;-62
2022/04/14 07:13:59;;;;;;;11.20;7.63;;;;;;;;;;2090155;28;20029;-61
2022/04/14 07:15:18;;;;;;;10.68;7.45;;;;;;;;;;2090144;28;20111;-61
2022/04/14 07:16:37;;;;;;;17.05;8.15;;;;;;;;;;2090856;28;20052;-61
2022/04/14 07:17:56;;;;;;;10.73;7.50;;;;;;;;;;2090666;28;20029;-61
2022/04/14 07:19:14;;;;;;;11.05;7.40;;;;;;;;;;2090217;28;20033;-61
2022/04/14 07:20:33;;;;;;;13.32;7.80;;;;;;;;;;2090173;28;20060;-62
2022/04/14 07:21:53;;;;;;;9.07;7.07;;;;;;;;;;2089844;28;20025;-62
2022/04/14 07:23:12;;;;;;;11.38;8.07;;;;;;;;;;2090149;28;20033;-61
2022/04/14 07:24:31;;;;;;;10.75;7.70;;;;;;;;;;2088794;28;20033;-61
2022/04/14 07:25:50;;;;;;;10.35;7.72;;;;;;;;;;2087739;28;20032;-60
2022/04/14 07:27:10;;;;;;;11.30;8.23;;;;;;;;;;2089002;28;20120;-62
2022/04/14 07:28:29;;;;;;;11.27;7.68;;;;;;;;;;2090892;28;20033;-61
2022/04/14 07:29:48;;;;;;;11.27;7.60;;;;;;;;;;2090167;28;20025;-61
2022/04/14 07:31:07;;;;;;;11.85;8.02;;;;;;;;;;2090662;28;20491;-61
2022/04/14 07:32:33;;;;;;;10.65;7.97;;;;;;;;;;2090744;28;20033;-62
2022/04/14 07:33:52;;;;;;;12.63;8.52;;;;;;;;;;2089241;28;20021;-60
2022/04/14 07:35:14;;;;;;;12.25;8.70;;;;;;;;;;2098352;28;20041;-60
2022/04/14 07:36:33;;;;;;;13.75;7.57;;;;;;;;;;2092779;28;20029;-61
2022/04/14 07:37:52;;;;;;;17.25;8.35;;;;;;;;;;2090753;28;20029;-59
2022/04/14 07:39:11;;;;;;;10.25;8.25;;;;;;;;;;2088925;28;20386;-61
2022/04/14 07:40:31;;;;;;;13.05;8.65;;;;;;;;;;2089182;28;20040;-61
2022/04/14 07:41:50;;;;;;;12.50;8.73;;;;;;;;;;2090543;28;20430;-61
2022/04/14 07:43:09;;;;;;;11.75;7.93;;;;;;;;;;2091012;28;20040;-61
2022/04/14 07:44:28;;;;;;;9.52;7.85;;;;;;;;;;2090377;28;20491;-61
2022/04/14 07:45:47;;;;;;;12.95;9.07;;;;;;;;;;2089975;28;20041;-61
2022/04/14 07:47:06;;;;;;;14.07;8.57;;;;;;;;;;2097654;28;20103;-60
2022/04/14 07:48:25;;;;;;;12.50;8.85;;;;;;;;;;2093111;28;20052;-61
2022/04/14 07:49:44;;;;;;;10.85;8.93;;;;;;;;;;2090486;28;20029;-61
2022/04/14 07:51:04;;;;;;;13.77;8.88;;;;;;;;;;2090122;28;20426;-61
2022/04/14 07:52:23;;;;;;;16.48;8.90;;;;;;;;;;2089928;28;20026;-61
2022/04/14 07:53:41;;;;;;;14.20;9.25;;;;;;;;;;2090677;28;20045;-61